createdAt,value
2018-06-02T00:00:04.348Z,24.35
2018-06-02T00:00:25.858Z,24.36
2018-06-02T00:00:47.386Z,24.36
2018-06-02T00:01:08.888Z,24.35
2018-06-02T00:01:30.412Z,24.35
2018-06-02T00:01:51.924Z,24.35
2018-06-02T00:02:13.434Z,24.35
2018-06-02T00:02:34.958Z,24.35
2018-06-02T00:02:56.580Z,24.35
2018-06-02T00:03:18.101Z,24.35
2018-06-02T00:03:39.621Z,24.36
2018-06-02T00:04:01.136Z,24.35
2018-06-02T00:04:22.651Z,24.36
2018-06-02T00:04:44.156Z,24.35
2018-06-02T00:05:05.693Z,24.36
2018-06-02T00:05:27.220Z,24.36
2018-06-02T00:05:48.731Z,24.36
2018-06-02T00:06:10.254Z,24.36
2018-06-02T00:06:31.796Z,24.36
2018-06-02T00:06:53.302Z,24.37
2018-06-02T00:07:14.811Z,24.37
2018-06-02T00:07:36.323Z,24.37
2018-06-02T00:07:57.827Z,24.36
2018-06-02T00:08:19.347Z,24.37
2018-06-02T00:08:40.865Z,24.37
2018-06-02T00:09:02.401Z,24.37
2018-06-02T00:09:23.921Z,24.37
2018-06-02T00:09:45.434Z,24.36
2018-06-02T00:10:06.968Z,24.36
2018-06-02T00:10:28.502Z,24.37
2018-06-02T00:10:50.026Z,24.37
2018-06-02T00:11:11.550Z,24.36
2018-06-02T00:11:33.159Z,24.36
2018-06-02T00:11:54.658Z,24.36
2018-06-02T00:12:16.181Z,24.37
2018-06-02T00:12:37.686Z,24.36
2018-06-02T00:12:59.209Z,24.37
2018-06-02T00:13:20.724Z,24.37
2018-06-02T00:13:42.241Z,24.37
2018-06-02T00:14:03.758Z,24.37
2018-06-02T00:14:25.277Z,24.37
2018-06-02T00:14:46.813Z,24.37
2018-06-02T00:15:08.343Z,24.37
2018-06-02T00:15:29.879Z,24.36
2018-06-02T00:15:51.397Z,24.37
2018-06-02T00:16:12.909Z,24.36
2018-06-02T00:16:34.419Z,24.37
2018-06-02T00:16:55.933Z,24.37
2018-06-02T00:17:17.448Z,24.38
2018-06-02T00:17:38.984Z,24.38
2018-06-02T00:18:00.495Z,24.39
2018-06-02T00:18:21.998Z,24.38
2018-06-02T00:18:43.523Z,24.37
2018-06-02T00:19:05.027Z,24.38
2018-06-02T00:19:26.549Z,24.38
2018-06-02T00:19:48.069Z,24.38
2018-06-02T00:20:09.651Z,24.38
2018-06-02T00:20:31.160Z,24.38
2018-06-02T00:20:52.679Z,24.39
2018-06-02T00:21:14.200Z,24.37
2018-06-02T00:21:35.708Z,24.38
2018-06-02T00:21:57.231Z,24.38
2018-06-02T00:22:18.754Z,24.38
2018-06-02T00:22:40.275Z,24.38
2018-06-02T00:23:01.798Z,24.38
2018-06-02T00:23:23.310Z,24.38
2018-06-02T00:23:44.839Z,24.38
2018-06-02T00:24:06.360Z,24.38
2018-06-02T00:24:27.880Z,24.38
2018-06-02T00:24:49.402Z,24.38
2018-06-02T00:25:10.996Z,24.38
2018-06-02T00:25:32.514Z,24.38
2018-06-02T00:25:54.019Z,24.38
2018-06-02T00:26:15.523Z,24.38
2018-06-02T00:26:37.032Z,24.38
2018-06-02T00:26:58.566Z,24.39
2018-06-02T00:27:20.079Z,24.38
2018-06-02T00:27:41.592Z,24.38
2018-06-02T00:28:03.116Z,24.38
2018-06-02T00:28:24.653Z,24.38
2018-06-02T00:28:46.177Z,24.39
2018-06-02T00:29:07.704Z,24.38
2018-06-02T00:29:29.238Z,24.38
2018-06-02T00:29:50.771Z,24.39
2018-06-02T00:30:12.303Z,24.38
2018-06-02T00:30:33.818Z,24.38
2018-06-02T00:30:55.346Z,24.38
2018-06-02T00:31:16.859Z,24.39
2018-06-02T00:31:38.393Z,24.38
2018-06-02T00:31:59.918Z,24.39
2018-06-02T00:32:22.447Z,24.38
2018-06-02T00:32:43.969Z,24.38
2018-06-02T00:33:05.483Z,24.39
2018-06-02T00:33:27.013Z,24.39
2018-06-02T00:33:48.526Z,24.39
2018-06-02T00:34:10.047Z,24.39
2018-06-02T00:34:31.575Z,24.39
2018-06-02T00:34:53.109Z,24.39
2018-06-02T00:35:14.658Z,24.39
2018-06-02T00:35:36.186Z,24.40
2018-06-02T00:35:57.708Z,24.39
2018-06-02T00:36:19.218Z,24.39
2018-06-02T00:36:40.735Z,24.39
2018-06-02T00:37:02.247Z,24.39
2018-06-02T00:37:23.778Z,24.39
2018-06-02T00:37:45.296Z,24.39
2018-06-02T00:38:06.809Z,24.39
2018-06-02T00:38:28.346Z,24.39
2018-06-02T00:38:49.872Z,24.39
2018-06-02T00:39:11.379Z,24.39
2018-06-02T00:39:32.914Z,24.39
2018-06-02T00:39:54.435Z,24.39
2018-06-02T00:40:15.971Z,24.39
2018-06-02T00:40:37.482Z,24.40
2018-06-02T00:40:59.004Z,24.39
2018-06-02T00:41:20.530Z,24.39
2018-06-02T00:41:42.043Z,24.39
2018-06-02T00:42:03.564Z,24.39
2018-06-02T00:42:25.088Z,24.38
2018-06-02T00:42:46.603Z,24.38
2018-06-02T00:43:08.123Z,24.38
2018-06-02T00:43:29.654Z,24.38
2018-06-02T00:43:51.183Z,24.38
2018-06-02T00:44:12.705Z,24.38
2018-06-02T00:44:34.221Z,24.38
2018-06-02T00:44:55.744Z,24.38
2018-06-02T00:45:17.275Z,24.38
2018-06-02T00:45:38.795Z,24.38
2018-06-02T00:46:00.396Z,24.37
2018-06-02T00:46:21.925Z,24.38
2018-06-02T00:46:43.446Z,24.38
2018-06-02T00:47:04.984Z,24.38
2018-06-02T00:47:26.501Z,24.37
2018-06-02T00:47:48.020Z,24.37
2018-06-02T00:48:09.536Z,24.38
2018-06-02T00:48:31.056Z,24.38
2018-06-02T00:48:52.571Z,24.38
2018-06-02T00:49:14.084Z,24.37
2018-06-02T00:49:35.604Z,24.37
2018-06-02T00:49:57.113Z,24.38
2018-06-02T00:50:18.632Z,24.37
2018-06-02T00:50:40.136Z,24.37
2018-06-02T00:51:01.642Z,24.37
2018-06-02T00:51:23.155Z,24.36
2018-06-02T00:51:44.669Z,24.37
2018-06-02T00:52:06.286Z,24.36
2018-06-02T00:52:27.811Z,24.36
2018-06-02T00:52:49.382Z,24.36
2018-06-02T00:53:10.934Z,24.36
2018-06-02T00:53:32.456Z,24.36
2018-06-02T00:53:53.984Z,24.36
2018-06-02T00:54:15.491Z,24.36
2018-06-02T00:54:37.000Z,24.36
2018-06-02T00:54:58.507Z,24.36
2018-06-02T00:55:20.046Z,24.35
2018-06-02T00:55:41.555Z,24.36
2018-06-02T00:56:03.070Z,24.36
2018-06-02T00:56:24.588Z,24.36
2018-06-02T00:56:46.103Z,24.36
2018-06-02T00:57:07.616Z,24.36
2018-06-02T00:57:29.140Z,24.36
2018-06-02T00:57:50.661Z,24.36
2018-06-02T00:58:12.185Z,24.36
2018-06-02T00:58:33.761Z,24.36
2018-06-02T00:58:55.279Z,24.36
2018-06-02T00:59:16.793Z,24.35
2018-06-02T00:59:38.314Z,24.36
2018-06-02T00:59:59.831Z,24.35
2018-06-02T01:00:21.359Z,24.36
2018-06-02T01:00:42.873Z,24.35
2018-06-02T01:01:04.397Z,24.35
2018-06-02T01:01:25.908Z,24.35
2018-06-02T01:01:47.429Z,24.35
2018-06-02T01:02:08.949Z,24.35
2018-06-02T01:02:30.477Z,24.34
2018-06-02T01:02:51.991Z,24.35
2018-06-02T01:03:13.525Z,24.36
2018-06-02T01:03:35.054Z,24.35
2018-06-02T01:03:56.576Z,24.34
2018-06-02T01:04:18.101Z,24.34
2018-06-02T01:04:39.623Z,24.34
2018-06-02T01:05:01.166Z,24.35
2018-06-02T01:05:22.688Z,24.35
2018-06-02T01:05:44.203Z,24.34
2018-06-02T01:06:05.756Z,24.34
2018-06-02T01:06:27.263Z,24.34
2018-06-02T01:06:48.768Z,24.34
2018-06-02T01:07:10.296Z,24.34
2018-06-02T01:07:31.810Z,24.34
2018-06-02T01:07:53.317Z,24.34
2018-06-02T01:08:14.836Z,24.34
2018-06-02T01:08:36.340Z,24.33
2018-06-02T01:08:57.852Z,24.34
2018-06-02T01:09:19.379Z,24.34
2018-06-02T01:09:40.904Z,24.34
2018-06-02T01:10:02.426Z,24.33
2018-06-02T01:10:23.963Z,24.34
2018-06-02T01:10:45.482Z,24.33
2018-06-02T01:11:07.004Z,24.33
2018-06-02T01:11:28.517Z,24.34
2018-06-02T01:11:50.046Z,24.33
2018-06-02T01:12:11.552Z,24.33
2018-06-02T01:12:33.065Z,24.34
2018-06-02T01:12:54.580Z,24.34
2018-06-02T01:13:16.088Z,24.34
2018-06-02T01:13:37.598Z,24.33
2018-06-02T01:13:59.108Z,24.34
2018-06-02T01:14:20.627Z,24.33
2018-06-02T01:14:42.134Z,24.34
2018-06-02T01:15:03.652Z,24.34
2018-06-02T01:15:25.197Z,24.34
2018-06-02T01:15:46.733Z,24.33
2018-06-02T01:16:08.247Z,24.33
2018-06-02T01:16:29.768Z,24.32
2018-06-02T01:16:51.292Z,24.33
2018-06-02T01:17:12.816Z,24.33
2018-06-02T01:17:34.341Z,24.33
2018-06-02T01:17:55.856Z,24.33
2018-06-02T01:18:17.375Z,24.33
2018-06-02T01:18:38.883Z,24.32
2018-06-02T01:19:00.396Z,24.33
2018-06-02T01:19:21.910Z,24.33
2018-06-02T01:19:43.429Z,24.32
2018-06-02T01:20:04.962Z,24.33
2018-06-02T01:20:26.480Z,24.33
2018-06-02T01:20:48.020Z,24.33
2018-06-02T01:21:09.530Z,24.33
2018-06-02T01:21:31.033Z,24.32
2018-06-02T01:21:52.565Z,24.32
2018-06-02T01:22:14.075Z,24.32
2018-06-02T01:22:35.605Z,24.33
2018-06-02T01:22:57.133Z,24.33
2018-06-02T01:23:18.638Z,24.32
2018-06-02T01:23:40.142Z,24.32
2018-06-02T01:24:01.651Z,24.33
2018-06-02T01:24:23.179Z,24.32
2018-06-02T01:24:44.688Z,24.32
2018-06-02T01:25:06.204Z,24.32
2018-06-02T01:25:27.742Z,24.33
2018-06-02T01:25:49.257Z,24.32
2018-06-02T01:26:10.767Z,24.32
2018-06-02T01:26:32.297Z,24.32
2018-06-02T01:26:53.807Z,24.32
2018-06-02T01:27:15.338Z,24.32
2018-06-02T01:27:36.856Z,24.31
2018-06-02T01:27:58.381Z,24.31
2018-06-02T01:28:19.904Z,24.31
2018-06-02T01:28:41.424Z,24.31
2018-06-02T01:29:02.950Z,24.31
2018-06-02T01:29:24.466Z,24.31
2018-06-02T01:29:45.987Z,24.31
2018-06-02T01:30:07.518Z,24.31
2018-06-02T01:30:29.049Z,24.31
2018-06-02T01:30:50.574Z,24.31
2018-06-02T01:31:12.095Z,24.31
2018-06-02T01:31:33.610Z,24.32
2018-06-02T01:31:55.138Z,24.31
2018-06-02T01:32:16.655Z,24.32
2018-06-02T01:32:38.165Z,24.32
2018-06-02T01:32:59.686Z,24.32
2018-06-02T01:33:21.227Z,24.32
2018-06-02T01:33:42.739Z,24.31
2018-06-02T01:34:04.260Z,24.31
2018-06-02T01:34:25.785Z,24.31
2018-06-02T01:34:47.310Z,24.31
2018-06-02T01:35:08.824Z,24.31
2018-06-02T01:35:30.347Z,24.31
2018-06-02T01:35:51.874Z,24.30
2018-06-02T01:36:13.391Z,24.30
2018-06-02T01:36:34.904Z,24.31
2018-06-02T01:36:56.416Z,24.31
2018-06-02T01:37:17.931Z,24.31
2018-06-02T01:37:39.438Z,24.31
2018-06-02T01:38:00.958Z,24.30
2018-06-02T01:38:22.481Z,24.31
2018-06-02T01:38:44.688Z,24.31
2018-06-02T01:39:06.217Z,24.31
2018-06-02T01:39:27.760Z,24.31
2018-06-02T01:39:49.272Z,24.30
2018-06-02T01:40:10.791Z,24.31
2018-06-02T01:40:32.327Z,24.30
2018-06-02T01:40:53.847Z,24.30
2018-06-02T01:41:15.380Z,24.31
2018-06-02T01:41:36.909Z,24.31
2018-06-02T01:41:58.429Z,24.31
2018-06-02T01:42:19.956Z,24.31
2018-06-02T01:42:41.476Z,24.30
2018-06-02T01:43:02.991Z,24.30
2018-06-02T01:43:24.505Z,24.31
2018-06-02T01:43:46.016Z,24.31
2018-06-02T01:44:07.519Z,24.31
2018-06-02T01:44:29.032Z,24.31
2018-06-02T01:44:50.556Z,24.32
2018-06-02T01:45:12.080Z,24.31
2018-06-02T01:45:33.604Z,24.31
2018-06-02T01:45:55.144Z,24.32
2018-06-02T01:46:16.660Z,24.32
2018-06-02T01:46:38.178Z,24.32
2018-06-02T01:46:59.704Z,24.32
2018-06-02T01:47:21.224Z,24.31
2018-06-02T01:47:42.731Z,24.31
2018-06-02T01:48:04.293Z,24.31
2018-06-02T01:48:25.812Z,24.32
2018-06-02T01:48:47.349Z,24.31
2018-06-02T01:49:08.872Z,24.31
2018-06-02T01:49:30.382Z,24.31
2018-06-02T01:49:51.922Z,24.31
2018-06-02T01:50:13.451Z,24.31
2018-06-02T01:50:34.993Z,24.31
2018-06-02T01:50:56.503Z,24.31
2018-06-02T01:51:18.016Z,24.31
2018-06-02T01:51:39.539Z,24.30
2018-06-02T01:52:01.065Z,24.30
2018-06-02T01:52:22.578Z,24.30
2018-06-02T01:52:44.095Z,24.30
2018-06-02T01:53:05.600Z,24.30
2018-06-02T01:53:27.120Z,24.30
2018-06-02T01:53:48.657Z,24.30
2018-06-02T01:54:10.164Z,24.30
2018-06-02T01:54:31.679Z,24.30
2018-06-02T01:54:53.195Z,24.29
2018-06-02T01:55:14.704Z,24.29
2018-06-02T01:55:36.240Z,24.30
2018-06-02T01:55:57.751Z,24.29
2018-06-02T01:56:19.263Z,24.30
2018-06-02T01:56:40.775Z,24.29
2018-06-02T01:57:02.302Z,24.29
2018-06-02T01:57:23.825Z,24.30
2018-06-02T01:57:45.348Z,24.30
2018-06-02T01:58:06.869Z,24.30
2018-06-02T01:58:28.389Z,24.30
2018-06-02T01:58:49.913Z,24.30
2018-06-02T01:59:11.430Z,24.29
2018-06-02T01:59:32.946Z,24.29
2018-06-02T01:59:54.472Z,24.30
2018-06-02T02:00:15.983Z,24.29
2018-06-02T02:00:37.503Z,24.29
2018-06-02T02:00:59.027Z,24.29
2018-06-02T02:01:20.550Z,24.29
2018-06-02T02:01:42.077Z,24.29
2018-06-02T02:02:03.584Z,24.29
2018-06-02T02:02:25.098Z,24.30
2018-06-02T02:02:46.608Z,24.29
2018-06-02T02:03:08.133Z,24.30
2018-06-02T02:03:29.676Z,24.30
2018-06-02T02:03:51.190Z,24.30
2018-06-02T02:04:12.716Z,24.30
2018-06-02T02:04:34.237Z,24.29
2018-06-02T02:04:55.750Z,24.29
2018-06-02T02:05:17.268Z,24.29
2018-06-02T02:05:38.805Z,24.29
2018-06-02T02:06:00.332Z,24.29
2018-06-02T02:06:21.854Z,24.29
2018-06-02T02:06:43.385Z,24.29
2018-06-02T02:07:04.908Z,24.29
2018-06-02T02:07:26.440Z,24.29
2018-06-02T02:07:47.973Z,24.29
2018-06-02T02:08:09.489Z,24.28
2018-06-02T02:08:31.000Z,24.28
2018-06-02T02:08:52.523Z,24.30
2018-06-02T02:09:14.027Z,24.28
2018-06-02T02:09:35.532Z,24.29
2018-06-02T02:09:57.039Z,24.29
2018-06-02T02:10:18.572Z,24.29
2018-06-02T02:10:40.129Z,24.29
2018-06-02T02:11:01.652Z,24.29
2018-06-02T02:11:23.175Z,24.29
2018-06-02T02:11:44.694Z,24.29
2018-06-02T02:12:06.212Z,24.29
2018-06-02T02:12:27.771Z,24.29
2018-06-02T02:12:49.283Z,24.28
2018-06-02T02:13:10.790Z,24.28
2018-06-02T02:13:32.302Z,24.29
2018-06-02T02:13:53.829Z,24.28
2018-06-02T02:14:15.345Z,24.29
2018-06-02T02:14:36.868Z,24.28
2018-06-02T02:14:58.388Z,24.28
2018-06-02T02:15:19.900Z,24.28
2018-06-02T02:15:41.430Z,24.28
2018-06-02T02:16:02.945Z,24.28
2018-06-02T02:16:24.455Z,24.28
2018-06-02T02:16:45.972Z,24.28
2018-06-02T02:17:07.499Z,24.28
2018-06-02T02:17:29.621Z,24.28
2018-06-02T02:17:51.808Z,24.28
2018-06-02T02:18:13.335Z,24.28
2018-06-02T02:18:34.843Z,24.28
2018-06-02T02:18:56.355Z,24.28
2018-06-02T02:19:17.898Z,24.27
2018-06-02T02:19:39.426Z,24.28
2018-06-02T02:20:00.936Z,24.28
2018-06-02T02:20:22.471Z,24.27
2018-06-02T02:20:43.977Z,24.27
2018-06-02T02:21:05.503Z,24.27
2018-06-02T02:21:27.011Z,24.27
2018-06-02T02:21:48.561Z,24.27
2018-06-02T02:22:10.076Z,24.27
2018-06-02T02:22:31.602Z,24.27
2018-06-02T02:22:53.120Z,24.27
2018-06-02T02:23:14.637Z,24.27
2018-06-02T02:23:36.154Z,24.27
2018-06-02T02:23:57.659Z,24.27
2018-06-02T02:24:19.231Z,24.27
2018-06-02T02:24:40.744Z,24.27
2018-06-02T02:25:02.276Z,24.27
2018-06-02T02:25:23.816Z,24.27
2018-06-02T02:25:45.333Z,24.27
2018-06-02T02:26:06.843Z,24.27
2018-06-02T02:26:28.388Z,24.27
2018-06-02T02:26:49.901Z,24.27
2018-06-02T02:27:11.423Z,24.27
2018-06-02T02:27:32.950Z,24.27
2018-06-02T02:27:54.456Z,24.27
2018-06-02T02:28:15.977Z,24.28
2018-06-02T02:28:37.493Z,24.27
2018-06-02T02:28:59.016Z,24.27
2018-06-02T02:29:20.551Z,24.27
2018-06-02T02:29:42.104Z,24.27
2018-06-02T02:30:03.633Z,24.27
2018-06-02T02:30:25.213Z,24.26
2018-06-02T02:30:46.728Z,24.27
2018-06-02T02:31:08.345Z,24.27
2018-06-02T02:31:29.873Z,24.26
2018-06-02T02:31:51.399Z,24.26
2018-06-02T02:32:12.916Z,24.26
2018-06-02T02:32:34.425Z,24.26
2018-06-02T02:32:55.962Z,24.26
2018-06-02T02:33:17.478Z,24.27
2018-06-02T02:33:38.999Z,24.26
2018-06-02T02:34:00.531Z,24.26
2018-06-02T02:34:22.053Z,24.26
2018-06-02T02:34:43.576Z,24.26
2018-06-02T02:35:05.079Z,24.26
2018-06-02T02:35:26.603Z,24.26
2018-06-02T02:35:48.129Z,24.26
2018-06-02T02:36:09.654Z,24.27
2018-06-02T02:36:31.172Z,24.26
2018-06-02T02:36:52.686Z,24.26
2018-06-02T02:37:14.211Z,24.26
2018-06-02T02:37:35.735Z,24.26
2018-06-02T02:37:57.253Z,24.26
2018-06-02T02:38:18.763Z,24.27
2018-06-02T02:38:40.285Z,24.26
2018-06-02T02:39:01.805Z,24.27
2018-06-02T02:39:23.307Z,24.26
2018-06-02T02:39:44.850Z,24.27
2018-06-02T02:40:06.360Z,24.26
2018-06-02T02:40:27.902Z,24.26
2018-06-02T02:40:49.406Z,24.26
2018-06-02T02:41:10.915Z,24.26
2018-06-02T02:41:32.419Z,24.26
2018-06-02T02:41:53.926Z,24.26
2018-06-02T02:42:15.439Z,24.26
2018-06-02T02:42:36.951Z,24.26
2018-06-02T02:42:58.462Z,24.27
2018-06-02T02:43:19.982Z,24.26
2018-06-02T02:43:41.509Z,24.26
2018-06-02T02:44:03.032Z,24.27
2018-06-02T02:44:24.546Z,24.26
2018-06-02T02:44:46.079Z,24.26
2018-06-02T02:45:07.598Z,24.26
2018-06-02T02:45:29.131Z,24.26
2018-06-02T02:45:50.648Z,24.26
2018-06-02T02:46:12.155Z,24.26
2018-06-02T02:46:33.681Z,24.26
2018-06-02T02:46:55.199Z,24.26
2018-06-02T02:47:16.719Z,24.26
2018-06-02T02:47:38.220Z,24.26
2018-06-02T02:47:59.725Z,24.26
2018-06-02T02:48:21.724Z,24.26
2018-06-02T02:48:43.254Z,24.26
2018-06-02T02:49:04.771Z,24.25
2018-06-02T02:49:26.288Z,24.26
2018-06-02T02:49:47.854Z,24.26
2018-06-02T02:50:09.362Z,24.26
2018-06-02T02:50:30.912Z,24.26
2018-06-02T02:50:52.442Z,24.26
2018-06-02T02:51:13.965Z,24.26
2018-06-02T02:51:35.466Z,24.26
2018-06-02T02:51:56.993Z,24.26
2018-06-02T02:52:18.523Z,24.25
2018-06-02T02:52:40.051Z,24.26
2018-06-02T02:53:01.567Z,24.26
2018-06-02T02:53:23.081Z,24.25
2018-06-02T02:53:44.593Z,24.25
2018-06-02T02:54:06.099Z,24.26
2018-06-02T02:54:27.618Z,24.25
2018-06-02T02:54:49.143Z,24.25
2018-06-02T02:55:10.727Z,24.25
2018-06-02T02:55:32.263Z,24.25
2018-06-02T02:55:53.784Z,24.25
2018-06-02T02:56:15.350Z,24.25
2018-06-02T02:56:36.865Z,24.25
2018-06-02T02:56:58.459Z,24.26
2018-06-02T02:57:19.989Z,24.25
2018-06-02T02:57:41.575Z,24.26
2018-06-02T02:58:03.099Z,24.25
2018-06-02T02:58:24.674Z,24.25
2018-06-02T02:58:46.199Z,24.25
2018-06-02T02:59:07.719Z,24.25
2018-06-02T02:59:29.226Z,24.25
2018-06-02T02:59:50.752Z,24.25
2018-06-02T03:00:12.263Z,24.25
2018-06-02T03:00:33.818Z,24.25
2018-06-02T03:00:55.397Z,24.24
2018-06-02T03:01:17.000Z,24.25
2018-06-02T03:01:38.528Z,24.25
2018-06-02T03:02:00.045Z,24.25
2018-06-02T03:02:21.562Z,24.26
2018-06-02T03:02:43.100Z,24.25
2018-06-02T03:03:04.620Z,24.24
2018-06-02T03:03:26.133Z,24.25
2018-06-02T03:03:47.652Z,24.26
2018-06-02T03:04:09.184Z,24.25
2018-06-02T03:04:30.709Z,24.25
2018-06-02T03:04:52.221Z,24.25
2018-06-02T03:05:13.744Z,24.24
2018-06-02T03:05:35.284Z,24.25
2018-06-02T03:05:56.875Z,24.25
2018-06-02T03:06:18.393Z,24.24
2018-06-02T03:06:39.909Z,24.24
2018-06-02T03:07:01.423Z,24.25
2018-06-02T03:07:22.931Z,24.24
2018-06-02T03:07:44.444Z,24.24
2018-06-02T03:08:05.956Z,24.24
2018-06-02T03:08:27.489Z,24.24
2018-06-02T03:08:49.011Z,24.24
2018-06-02T03:09:10.528Z,24.24
2018-06-02T03:09:32.039Z,24.24
2018-06-02T03:09:53.557Z,24.24
2018-06-02T03:10:15.075Z,24.24
2018-06-02T03:10:36.618Z,24.24
2018-06-02T03:10:58.136Z,24.23
2018-06-02T03:11:19.652Z,24.24
2018-06-02T03:11:41.170Z,24.24
2018-06-02T03:12:02.701Z,24.23
2018-06-02T03:12:24.224Z,24.23
2018-06-02T03:12:45.856Z,24.24
2018-06-02T03:13:07.380Z,24.23
2018-06-02T03:13:28.892Z,24.24
2018-06-02T03:13:50.403Z,24.23
2018-06-02T03:14:11.915Z,24.23
2018-06-02T03:14:33.426Z,24.24
2018-06-02T03:14:54.935Z,24.24
2018-06-02T03:15:16.439Z,24.23
2018-06-02T03:15:37.979Z,24.25
2018-06-02T03:15:59.492Z,24.24
2018-06-02T03:16:21.003Z,24.24
2018-06-02T03:16:42.523Z,24.23
2018-06-02T03:17:04.096Z,24.23
2018-06-02T03:17:25.596Z,24.23
2018-06-02T03:17:47.108Z,24.23
2018-06-02T03:18:08.618Z,24.23
2018-06-02T03:18:30.122Z,24.23
2018-06-02T03:18:51.644Z,24.23
2018-06-02T03:19:13.164Z,24.24
2018-06-02T03:19:34.696Z,24.24
2018-06-02T03:19:56.240Z,24.23
2018-06-02T03:20:17.725Z,24.24
2018-06-02T03:20:39.272Z,24.24
2018-06-02T03:21:00.792Z,24.24
2018-06-02T03:21:22.309Z,24.23
2018-06-02T03:21:43.836Z,24.23
2018-06-02T03:22:05.571Z,24.23
2018-06-02T03:22:27.080Z,24.24
2018-06-02T03:22:48.597Z,24.24
2018-06-02T03:23:10.106Z,24.23
2018-06-02T03:23:31.623Z,24.24
2018-06-02T03:23:53.142Z,24.23
2018-06-02T03:24:14.654Z,24.24
2018-06-02T03:24:36.180Z,24.24
2018-06-02T03:24:57.699Z,24.24
2018-06-02T03:25:19.219Z,24.24
2018-06-02T03:25:40.768Z,24.24
2018-06-02T03:26:02.295Z,24.24
2018-06-02T03:26:23.811Z,24.24
2018-06-02T03:26:45.311Z,24.24
2018-06-02T03:27:06.824Z,24.24
2018-06-02T03:27:28.342Z,24.24
2018-06-02T03:27:49.860Z,24.25
2018-06-02T03:28:11.383Z,24.25
2018-06-02T03:28:32.895Z,24.24
2018-06-02T03:28:54.549Z,24.24
2018-06-02T03:29:16.056Z,24.24
2018-06-02T03:29:37.582Z,24.24
2018-06-02T03:29:59.104Z,24.23
2018-06-02T03:30:20.642Z,24.24
2018-06-02T03:30:42.195Z,24.24
2018-06-02T03:31:03.772Z,24.24
2018-06-02T03:31:25.380Z,24.25
2018-06-02T03:31:46.896Z,24.23
2018-06-02T03:32:08.494Z,24.24
2018-06-02T03:32:30.003Z,24.24
2018-06-02T03:32:51.528Z,24.24
2018-06-02T03:33:13.046Z,24.25
2018-06-02T03:33:34.563Z,24.24
2018-06-02T03:33:56.075Z,24.24
2018-06-02T03:34:17.583Z,24.24
2018-06-02T03:34:39.104Z,24.24
2018-06-02T03:35:00.621Z,24.25
2018-06-02T03:35:22.136Z,24.25
2018-06-02T03:35:43.667Z,24.23
2018-06-02T03:36:05.171Z,24.23
2018-06-02T03:36:26.683Z,24.23
2018-06-02T03:36:48.262Z,24.24
2018-06-02T03:37:09.776Z,24.24
2018-06-02T03:37:31.300Z,24.23
2018-06-02T03:37:52.807Z,24.23
2018-06-02T03:38:14.324Z,24.23
2018-06-02T03:38:35.873Z,24.23
2018-06-02T03:38:57.389Z,24.23
2018-06-02T03:39:18.979Z,24.23
2018-06-02T03:39:40.488Z,24.23
2018-06-02T03:40:01.995Z,24.23
2018-06-02T03:40:23.516Z,24.23
2018-06-02T03:40:45.056Z,24.22
2018-06-02T03:41:06.572Z,24.23
2018-06-02T03:41:28.089Z,24.22
2018-06-02T03:41:49.616Z,24.23
2018-06-02T03:42:11.119Z,24.22
2018-06-02T03:42:32.638Z,24.22
2018-06-02T03:42:54.148Z,24.22
2018-06-02T03:43:15.668Z,24.22
2018-06-02T03:43:37.184Z,24.22
2018-06-02T03:43:58.702Z,24.23
2018-06-02T03:44:20.230Z,24.23
2018-06-02T03:44:41.748Z,24.23
2018-06-02T03:45:03.274Z,24.22
2018-06-02T03:45:24.795Z,24.22
2018-06-02T03:45:46.348Z,24.22
2018-06-02T03:46:07.859Z,24.22
2018-06-02T03:46:29.366Z,24.22
2018-06-02T03:46:50.894Z,24.22
2018-06-02T03:47:12.408Z,24.22
2018-06-02T03:47:33.929Z,24.22
2018-06-02T03:47:55.442Z,24.22
2018-06-02T03:48:16.965Z,24.22
2018-06-02T03:48:38.483Z,24.22
2018-06-02T03:49:00.007Z,24.22
2018-06-02T03:49:21.524Z,24.23
2018-06-02T03:49:43.034Z,24.23
2018-06-02T03:50:04.544Z,24.23
2018-06-02T03:50:26.056Z,24.22
2018-06-02T03:50:47.590Z,24.22
2018-06-02T03:51:09.110Z,24.22
2018-06-02T03:51:30.627Z,24.22
2018-06-02T03:51:52.153Z,24.22
2018-06-02T03:52:13.684Z,24.23
2018-06-02T03:52:35.194Z,24.21
2018-06-02T03:52:56.852Z,24.22
2018-06-02T03:53:18.373Z,24.21
2018-06-02T03:53:39.900Z,24.22
2018-06-02T03:54:01.427Z,24.22
2018-06-02T03:54:22.967Z,24.22
2018-06-02T03:54:44.480Z,24.22
2018-06-02T03:55:06.004Z,24.22
2018-06-02T03:55:27.530Z,24.21
2018-06-02T03:55:49.055Z,24.21
2018-06-02T03:56:10.567Z,24.21
2018-06-02T03:56:32.090Z,24.21
2018-06-02T03:56:53.618Z,24.22
2018-06-02T03:57:15.134Z,24.21
2018-06-02T03:57:36.647Z,24.22
2018-06-02T03:57:58.163Z,24.21
2018-06-02T03:58:19.667Z,24.21
2018-06-02T03:58:41.213Z,24.21
2018-06-02T03:59:02.703Z,24.21
2018-06-02T03:59:24.231Z,24.21
2018-06-02T03:59:45.754Z,24.22
2018-06-02T04:00:07.267Z,24.21
2018-06-02T04:00:28.786Z,24.22
2018-06-02T04:00:50.325Z,24.21
2018-06-02T04:01:11.846Z,24.22
2018-06-02T04:01:33.361Z,24.22
2018-06-02T04:01:54.867Z,24.22
2018-06-02T04:02:16.794Z,24.21
2018-06-02T04:02:38.320Z,24.21
2018-06-02T04:02:59.827Z,24.21
2018-06-02T04:03:21.353Z,24.21
2018-06-02T04:03:42.865Z,24.21
2018-06-02T04:04:04.376Z,24.20
2018-06-02T04:04:25.901Z,24.20
2018-06-02T04:04:47.421Z,24.20
2018-06-02T04:05:08.927Z,24.20
2018-06-02T04:05:30.448Z,24.20
2018-06-02T04:05:52.002Z,24.20
2018-06-02T04:06:46.016Z,24.20
2018-06-02T04:07:07.532Z,24.20
2018-06-02T04:07:29.048Z,24.20
2018-06-02T04:07:50.577Z,24.20
2018-06-02T04:08:12.091Z,24.21
2018-06-02T04:08:33.719Z,24.20
2018-06-02T04:08:55.232Z,24.20
2018-06-02T04:09:16.811Z,24.20
2018-06-02T04:09:38.324Z,24.20
2018-06-02T04:09:59.845Z,24.20
2018-06-02T04:10:21.372Z,24.20
2018-06-02T04:10:42.879Z,24.19
2018-06-02T04:11:04.427Z,24.20
2018-06-02T04:11:25.938Z,24.20
2018-06-02T04:11:47.442Z,24.21
2018-06-02T04:12:08.957Z,24.20
2018-06-02T04:12:30.476Z,24.20
2018-06-02T04:12:51.985Z,24.20
2018-06-02T04:13:13.509Z,24.20
2018-06-02T04:13:35.024Z,24.20
2018-06-02T04:13:56.547Z,24.21
2018-06-02T04:14:18.059Z,24.21
2018-06-02T04:14:39.572Z,24.21
2018-06-02T04:15:01.078Z,24.20
2018-06-02T04:15:22.608Z,24.21
2018-06-02T04:15:44.140Z,24.20
2018-06-02T04:16:05.670Z,24.20
2018-06-02T04:16:27.180Z,24.20
2018-06-02T04:16:48.703Z,24.20
2018-06-02T04:17:10.235Z,24.20
2018-06-02T04:17:31.760Z,24.20
2018-06-02T04:17:53.277Z,24.21
2018-06-02T04:18:14.801Z,24.20
2018-06-02T04:18:36.312Z,24.20
2018-06-02T04:18:57.834Z,24.20
2018-06-02T04:19:19.337Z,24.20
2018-06-02T04:19:40.843Z,24.20
2018-06-02T04:20:02.436Z,24.20
2018-06-02T04:20:23.950Z,24.20
2018-06-02T04:20:45.480Z,24.20
2018-06-02T04:21:07.012Z,24.20
2018-06-02T04:21:28.520Z,24.19
2018-06-02T04:21:50.049Z,24.19
2018-06-02T04:22:11.565Z,24.20
2018-06-02T04:22:33.078Z,24.20
2018-06-02T04:22:54.583Z,24.20
2018-06-02T04:23:16.108Z,24.20
2018-06-02T04:23:37.610Z,24.20
2018-06-02T04:23:59.126Z,24.20
2018-06-02T04:24:20.701Z,24.20
2018-06-02T04:24:42.224Z,24.20
2018-06-02T04:25:03.753Z,24.20
2018-06-02T04:25:25.258Z,24.21
2018-06-02T04:25:46.768Z,24.20
2018-06-02T04:26:08.307Z,24.20
2018-06-02T04:26:29.810Z,24.20
2018-06-02T04:26:51.320Z,24.20
2018-06-02T04:27:12.847Z,24.20
2018-06-02T04:27:34.369Z,24.20
2018-06-02T04:27:55.940Z,24.21
2018-06-02T04:28:17.452Z,24.20
2018-06-02T04:28:38.973Z,24.21
2018-06-02T04:29:00.501Z,24.21
2018-06-02T04:29:22.006Z,24.21
2018-06-02T04:29:43.516Z,24.21
2018-06-02T04:30:05.022Z,24.21
2018-06-02T04:30:26.540Z,24.21
2018-06-02T04:30:48.060Z,24.21
2018-06-02T04:31:09.601Z,24.20
2018-06-02T04:31:31.129Z,24.20
2018-06-02T04:31:52.660Z,24.20
2018-06-02T04:32:14.163Z,24.20
2018-06-02T04:32:35.672Z,24.20
2018-06-02T04:32:57.185Z,24.20
2018-06-02T04:33:18.703Z,24.20
2018-06-02T04:33:40.225Z,24.21
2018-06-02T04:34:01.761Z,24.21
2018-06-02T04:34:23.282Z,24.20
2018-06-02T04:34:44.787Z,24.20
2018-06-02T04:35:06.303Z,24.20
2018-06-02T04:35:27.820Z,24.20
2018-06-02T04:35:49.341Z,24.20
2018-06-02T04:36:10.875Z,24.20
2018-06-02T04:36:32.437Z,24.20
2018-06-02T04:36:53.925Z,24.20
2018-06-02T04:37:15.453Z,24.20
2018-06-02T04:37:36.979Z,24.21